Siirt Airport Siirt TR
ICAO: LTCL
IATA: SXZ
Category: Medium
Scheduled Services: No

Elevation: 2001 ft
TransAlt. 12000 ft.

Airport Communications:
TWR:132.05

LTCL Zoom In..

If you have problems with the map follow the link
https://www.worldairports.se/pages/airport.php?
ICAO=LTCL

Runways:

(A) RW 06 length 6562 ft width 98 ft
---- / hdg 63

(B) RW 24 length 6562 ft width 98 ft
---- / hdg 243

Location; LTCL
Day. 22 / Time. 10.50 Zulu
* QNH: 1019
* Temperature: 22° c. 71.6°f.
* Wind from: 230° Speed 03 kn.
Dewpoint: 14° c.
Visibility: 10 km or more.
Clouds: Scattered 4000 ft.

LTCL 221050Z 23003KT 9999 SCT040 22/14 Q1019


Wind From 230°
Speed 03 kn.

 
 
jpsmedia.com for Web Design worldairports.se 2018   terms of use